createdAt,value
2022-09-04T00:03:54.609Z,14.22
2022-09-04T00:09:31.250Z,14.98
2022-09-04T00:14:43.583Z,17.79
2022-09-04T00:20:01.945Z,17.73
2022-09-04T00:25:39.036Z,16.26
2022-09-04T00:30:54.420Z,15.40
2022-09-04T00:36:03.778Z,14.87
2022-09-04T00:41:42.450Z,14.47
2022-09-04T00:46:54.566Z,14.11
2022-09-04T00:52:35.376Z,13.85
2022-09-04T00:58:17.807Z,14.96
2022-09-04T01:03:38.919Z,17.71
2022-09-04T01:09:14.953Z,17.21
2022-09-04T01:14:48.687Z,15.79
2022-09-04T01:19:59.502Z,15.02
2022-09-04T01:25:53.566Z,14.52
2022-09-04T01:31:13.879Z,14.03
2022-09-04T01:36:41.662Z,13.69
2022-09-04T01:42:15.099Z,13.42
2022-09-04T01:47:58.021Z,14.45
2022-09-04T01:53:27.038Z,17.32
2022-09-04T01:58:57.353Z,17.08
2022-09-04T02:04:22.548Z,15.67
2022-09-04T02:09:50.104Z,14.90
2022-09-04T02:15:31.806Z,14.34
2022-09-04T02:20:35.352Z,13.86
2022-09-04T02:25:59.639Z,13.50
2022-09-04T02:31:23.393Z,13.20
2022-09-04T02:37:09.796Z,14.12
2022-09-04T02:42:41.422Z,17.02
2022-09-04T02:48:06.050Z,17.12
2022-09-04T02:53:24.474Z,15.59
2022-09-04T02:59:02.821Z,14.74
2022-09-04T03:04:20.849Z,14.13
2022-09-04T03:09:57.972Z,13.69
2022-09-04T03:15:47.085Z,13.30
2022-09-04T03:20:59.598Z,12.98
2022-09-04T03:26:30.159Z,13.88
2022-09-04T03:32:01.208Z,16.75
2022-09-04T03:37:44.186Z,17.01
2022-09-04T03:43:24.217Z,15.40
2022-09-04T03:48:49.123Z,14.53
2022-09-04T03:54:24.264Z,13.95
2022-09-04T04:00:12.476Z,13.50
2022-09-04T04:05:24.558Z,13.12
2022-09-04T04:10:49.687Z,13.91
2022-09-04T04:16:24.736Z,16.68
2022-09-04T04:22:04.256Z,17.07
2022-09-04T04:27:07.637Z,15.42
2022-09-04T04:32:37.634Z,14.70
2022-09-04T04:38:18.459Z,14.36
2022-09-04T04:43:58.715Z,14.17
2022-09-04T04:49:20.067Z,13.94
2022-09-04T04:54:51.584Z,15.07
2022-09-04T05:00:42.267Z,17.94
2022-09-04T05:06:07.297Z,18.00
2022-09-04T05:11:42.282Z,16.57
2022-09-04T05:17:12.596Z,15.87
2022-09-04T05:22:42.811Z,15.57
2022-09-04T05:28:07.756Z,16.46
2022-09-04T05:33:58.994Z,18.74
2022-09-04T05:39:29.779Z,21.31
2022-09-04T05:45:08.302Z,22.01
2022-09-04T05:50:21.412Z,20.58
2022-09-04T05:56:09.177Z,19.17
2022-09-04T06:01:56.993Z,18.07
2022-09-04T06:07:15.872Z,17.35
2022-09-04T06:12:34.049Z,16.96
2022-09-04T06:18:20.420Z,16.71
2022-09-04T06:24:18.332Z,17.93
2022-09-04T06:30:06.507Z,20.69
2022-09-04T06:35:33.184Z,20.94
2022-09-04T06:41:00.135Z,19.53
2022-09-04T06:46:27.938Z,18.74
2022-09-04T06:51:59.465Z,18.24
2022-09-04T06:57:40.647Z,17.87
2022-09-04T07:03:27.952Z,17.66
2022-09-04T07:09:09.427Z,17.54
2022-09-04T07:14:27.842Z,17.36
2022-09-04T07:19:47.604Z,18.53
2022-09-04T07:25:01.018Z,21.11
2022-09-04T07:30:20.294Z,21.57
2022-09-04T07:35:30.277Z,20.17
2022-09-04T07:40:35.191Z,19.35
2022-09-04T07:45:55.512Z,18.85
2022-09-04T07:51:10.884Z,18.44
2022-09-04T07:56:55.629Z,18.09
2022-09-04T08:02:09.163Z,17.84
2022-09-04T08:07:34.969Z,17.67
2022-09-04T08:12:50.951Z,17.53
2022-09-04T08:18:01.788Z,17.47
2022-09-04T08:23:16.663Z,17.46
2022-09-04T08:28:46.998Z,17.45
2022-09-04T08:34:20.962Z,17.48
2022-09-04T08:39:52.210Z,17.52
2022-09-04T08:45:42.710Z,17.55
2022-09-04T08:51:01.696Z,17.59
2022-09-04T08:56:56.277Z,17.64
2022-09-04T09:02:38.709Z,17.70
2022-09-04T09:08:19.388Z,17.71
2022-09-04T09:13:40.949Z,17.66
2022-09-04T09:19:25.809Z,17.56
2022-09-04T09:25:21.200Z,17.49
2022-09-04T09:30:25.450Z,17.52
2022-09-04T09:35:56.050Z,17.53
2022-09-04T09:41:20.384Z,17.59
2022-09-04T09:46:41.374Z,17.63
2022-09-04T09:51:59.465Z,17.71
2022-09-04T09:57:02.459Z,17.90
2022-09-04T10:02:16.722Z,18.13
2022-09-04T10:08:35.494Z,18.24
2022-09-04T10:14:07.396Z,18.27
2022-09-04T10:19:53.897Z,18.44
2022-09-04T10:25:14.889Z,18.68
2022-09-04T10:30:22.757Z,18.71
2022-09-04T10:35:45.974Z,18.64
2022-09-04T10:41:35.562Z,18.56
2022-09-04T10:47:15.724Z,18.59
2022-09-04T10:52:53.452Z,18.56
2022-09-04T10:58:23.777Z,18.52
2022-09-04T11:04:30.269Z,18.48
2022-09-04T11:09:43.312Z,18.45
2022-09-04T11:15:01.604Z,18.44
2022-09-04T11:20:29.669Z,18.47
2022-09-04T11:26:23.806Z,18.47
2022-09-04T11:31:51.361Z,18.48
2022-09-04T11:37:31.478Z,18.49
2022-09-04T11:42:53.128Z,18.53
2022-09-04T11:48:17.259Z,18.57
2022-09-04T11:54:00.636Z,18.59
2022-09-04T12:00:07.352Z,18.60
2022-09-04T12:05:47.652Z,18.62
2022-09-04T12:11:02.792Z,18.69
2022-09-04T12:16:38.757Z,18.74
2022-09-04T12:22:38.879Z,18.80
2022-09-04T12:28:14.605Z,18.87
2022-09-04T12:33:39.974Z,18.93
2022-09-04T12:39:03.714Z,18.99
2022-09-04T12:44:34.659Z,19.02
2022-09-04T12:50:02.470Z,19.06
2022-09-04T12:56:11.815Z,19.15
2022-09-04T13:01:32.225Z,19.26
2022-09-04T13:06:57.136Z,19.30
2022-09-04T13:12:16.498Z,19.33
2022-09-04T13:17:43.643Z,19.33
2022-09-04T13:23:17.813Z,19.39
2022-09-04T13:29:16.330Z,19.44
2022-09-04T13:34:37.950Z,19.46
2022-09-04T13:40:25.800Z,19.49
2022-09-04T13:45:43.378Z,19.49
2022-09-04T13:50:52.428Z,19.46
2022-09-04T13:56:06.502Z,19.42
2022-09-04T14:01:16.646Z,19.37
2022-09-04T14:06:24.428Z,19.32
2022-09-04T14:12:37.416Z,19.27
2022-09-04T14:18:23.765Z,19.26
2022-09-04T14:23:34.497Z,19.31
2022-09-04T14:29:26.685Z,19.33
2022-09-04T14:35:08.703Z,19.29
2022-09-04T14:40:30.001Z,19.23
2022-09-04T14:46:28.825Z,19.19
2022-09-04T14:51:44.241Z,19.16
2022-09-04T14:57:23.124Z,19.11
2022-09-04T15:02:56.436Z,19.08
2022-09-04T15:08:08.270Z,19.07
2022-09-04T15:13:31.502Z,19.06
2022-09-04T15:18:57.113Z,19.03
2022-09-04T15:24:28.572Z,19.01
2022-09-04T15:29:54.086Z,19.00
2022-09-04T15:35:32.768Z,18.99
2022-09-04T15:41:15.646Z,18.98
2022-09-04T15:46:42.663Z,18.95
2022-09-04T15:52:25.827Z,18.92
2022-09-04T15:57:46.937Z,18.89
2022-09-04T16:04:01.488Z,18.86
2022-09-04T16:09:20.070Z,18.82
2022-09-04T16:14:49.947Z,18.77
2022-09-04T16:20:08.166Z,18.72
2022-09-04T16:25:31.373Z,18.66
2022-09-04T16:30:47.371Z,18.58
2022-09-04T16:35:52.497Z,18.49
2022-09-04T16:41:14.451Z,18.40
2022-09-04T16:46:37.652Z,18.31
2022-09-04T16:51:51.691Z,18.22
2022-09-04T16:57:13.825Z,18.15
2022-09-04T17:02:44.963Z,18.07
2022-09-04T17:08:08.257Z,18.00
2022-09-04T17:13:36.920Z,17.94
2022-09-04T17:18:54.808Z,17.86
2022-09-04T17:28:58.917Z,17.77
2022-09-04T17:29:58.699Z,17.67
2022-09-04T17:40:39.313Z,17.58
2022-09-04T17:41:48.615Z,17.50
2022-09-04T17:47:15.312Z,17.44
2022-09-04T17:52:32.258Z,17.41
2022-09-04T17:57:58.491Z,17.37
2022-09-04T18:03:31.465Z,17.31
2022-09-04T18:09:00.647Z,17.24
2022-09-04T18:14:13.845Z,18.37
2022-09-04T18:19:38.585Z,20.98
2022-09-04T18:24:53.733Z,21.46
2022-09-04T18:33:25.288Z,20.07
2022-09-04T18:37:15.978Z,19.23
2022-09-04T18:49:10.319Z,18.66
2022-09-04T18:50:28.623Z,18.21
2022-09-04T18:52:42.815Z,17.82
2022-09-04T18:57:55.366Z,17.51
2022-09-04T19:03:25.743Z,17.25
2022-09-04T19:08:36.540Z,18.19
2022-09-04T19:13:53.312Z,20.67
2022-09-04T19:19:01.088Z,20.71
2022-09-04T19:25:04.726Z,19.31
2022-09-04T19:30:46.459Z,18.38
2022-09-04T19:36:06.060Z,17.78
2022-09-04T19:46:03.050Z,17.34
2022-09-04T19:47:02.627Z,16.95
2022-09-04T19:53:29.602Z,16.64
2022-09-04T19:58:23.025Z,16.35
2022-09-04T20:03:57.006Z,17.37
2022-09-04T20:09:26.335Z,20.04
2022-09-04T20:14:46.622Z,19.74
2022-09-04T20:19:57.456Z,18.39
2022-09-04T20:25:45.594Z,17.65
2022-09-04T20:31:28.457Z,17.11
2022-09-04T20:36:49.418Z,16.64
2022-09-04T20:42:06.365Z,16.29
2022-09-04T20:52:45.913Z,16.00
2022-09-04T20:53:22.939Z,16.98
2022-09-04T21:03:09.827Z,19.66
2022-09-04T21:05:47.435Z,18.89
2022-09-04T21:10:58.676Z,17.46
2022-09-04T21:16:26.544Z,16.79
2022-09-04T21:21:41.524Z,16.26
2022-09-04T21:26:50.092Z,15.92
2022-09-04T21:32:18.837Z,16.68
2022-09-04T21:37:27.449Z,19.39
2022-09-04T21:43:02.602Z,19.43
2022-09-04T21:48:28.330Z,17.91
2022-09-04T21:54:03.045Z,17.10
2022-09-04T22:02:37.029Z,16.54
2022-09-04T22:05:56.402Z,16.07
2022-09-04T22:13:43.727Z,15.68
2022-09-04T22:16:58.046Z,15.36
2022-09-04T22:22:49.329Z,16.15
2022-09-04T22:28:39.026Z,19.03
2022-09-04T22:34:23.041Z,18.71
2022-09-04T22:39:41.314Z,17.21
2022-09-04T22:45:37.072Z,16.37
2022-09-04T22:51:08.301Z,15.62
2022-09-04T22:56:24.989Z,16.28
2022-09-04T23:01:57.173Z,18.65
2022-09-04T23:13:09.609Z,17.59
2022-09-04T23:13:59.443Z,16.13
2022-09-04T23:26:31.357Z,15.27
2022-09-04T23:26:43.050Z,14.73
2022-09-04T23:31:29.721Z,16.54
2022-09-04T23:37:47.610Z,18.10
2022-09-04T23:43:36.578Z,16.25
2022-09-04T23:49:35.150Z,15.32
2022-09-04T23:55:23.988Z,14.69
